AUH weather

Abu Dhabi International Airport
Abu Dhabi, Abu Dhabi Emirate, United Arab Emirates

Public forecast

Using degrees Celsius for public forecast. Weather courtesy of forecast.io.

METAR (pilot weather report)

Retrieved 2019/03/23 22:00 UTC (46 minutes ago):

OMAA 232200Z 07003KT 8000 -RA NSC 24/15 Q1009 TEMPO VRB15G25KT 4000 BLDU FEW040TCU

TAF (pilot weather forecast)

Retrieved 2019/03/23 18:00 UTC (5 hours ago):

TAF OMAA 231700Z 2318/2500 16014KT 7000 NSC PROB30 TEMPO 2318/2400 VRB20G30KT 3000 TSRA BLDU FEW040CB PROB30 TEMPO 2402/2407 16018G28KT 3000 BLDU BECMG 2410/2412 36012KT BECMG 2416/2418 08008KT BECMG 2419/2421 15015KT